Time;durP1;ratioP1;P1;durP2;ratioP2;P2;SDS_P1;SDS_P2;PMS_P1;PMS_P2;Temp;Humidity;BMP_temperature;BMP_pressure;BME280_temperature;BME280_humidity;BME280_pressure;Samples;Min_cycle;Max_cycle;Signal;HPM_P1;HPM_P2
2022/12/27 00:02:17;;;;;;;6.70;1.73;;;;;;;;;;6208678;23;20531;-77
2022/12/27 00:04:45;;;;;;;9.13;2.73;;;;;;;;;;6209119;23;20846;-76
2022/12/27 00:07:10;;;;;;;8.37;2.13;;;;;;;;;;6209967;23;20590;-76
2022/12/27 00:09:35;;;;;;;6.90;2.23;;;;;;;;;;6207429;23;20381;-76
2022/12/27 00:12:01;;;;;;;6.83;2.20;;;;;;;;;;6208202;23;20144;-76
2022/12/27 00:14:26;;;;;;;7.50;2.50;;;;;;;;;;6208043;23;20224;-76
2022/12/27 00:16:52;;;;;;;8.77;2.60;;;;;;;;;;6206154;23;20237;-76
2022/12/27 00:19:17;;;;;;;6.33;2.03;;;;;;;;;;6207706;23;20171;-76
2022/12/27 00:21:42;;;;;;;7.63;2.37;;;;;;;;;;6208240;23;20144;-76
2022/12/27 00:24:10;;;;;;;9.90;2.70;;;;;;;;;;6208451;23;20156;-76
2022/12/27 00:26:35;;;;;;;11.33;1.97;;;;;;;;;;6207731;23;20148;-76
2022/12/27 00:29:01;;;;;;;5.50;1.57;;;;;;;;;;6207972;23;20421;-76
2022/12/27 00:31:29;;;;;;;6.60;2.00;;;;;;;;;;6209618;23;20159;-76
2022/12/27 00:33:57;;;;;;;8.73;1.73;;;;;;;;;;6210113;23;20174;-76
2022/12/27 00:36:24;;;;;;;6.40;1.80;;;;;;;;;;6207444;23;21215;-76
2022/12/27 00:38:49;;;;;;;6.47;2.27;;;;;;;;;;6210094;23;20853;-76
2022/12/27 00:41:15;;;;;;;6.03;2.47;;;;;;;;;;6215852;23;20363;-76
2022/12/27 00:43:40;;;;;;;6.53;2.40;;;;;;;;;;6209855;23;20509;-76
2022/12/27 00:46:06;;;;;;;7.23;1.80;;;;;;;;;;6213262;23;20150;-76
2022/12/27 00:48:34;;;;;;;13.50;2.90;;;;;;;;;;6215222;23;20164;-76
2022/12/27 00:51:00;;;;;;;5.17;1.80;;;;;;;;;;6214347;23;20160;-76
2022/12/27 00:53:26;;;;;;;8.30;2.07;;;;;;;;;;6213469;23;20815;-76
2022/12/27 00:55:52;;;;;;;8.27;1.97;;;;;;;;;;6214067;23;20892;-76
2022/12/27 00:58:20;;;;;;;9.73;2.10;;;;;;;;;;6212366;23;20667;-75
2022/12/27 01:00:45;;;;;;;4.37;1.60;;;;;;;;;;6210995;23;20155;-76
2022/12/27 01:03:11;;;;;;;7.57;2.10;;;;;;;;;;6215092;23;20390;-76
2022/12/27 01:05:38;;;;;;;8.83;1.90;;;;;;;;;;6211519;23;20163;-76
2022/12/27 01:08:04;;;;;;;5.50;2.93;;;;;;;;;;6212076;23;20270;-76
2022/12/27 01:10:32;;;;;;;5.67;1.90;;;;;;;;;;6212022;23;20889;-76
2022/12/27 01:13:00;;;;;;;10.73;2.00;;;;;;;;;;6210170;23;20167;-76
2022/12/27 01:15:25;;;;;;;8.87;2.60;;;;;;;;;;6205231;23;20379;-76
2022/12/27 01:17:53;;;;;;;9.20;2.20;;;;;;;;;;6209543;23;20399;-76
2022/12/27 01:20:18;;;;;;;9.33;2.07;;;;;;;;;;6211216;23;20606;-76
2022/12/27 01:22:44;;;;;;;7.23;2.03;;;;;;;;;;6210851;23;20374;-76
2022/12/27 01:25:11;;;;;;;9.23;2.37;;;;;;;;;;6209313;23;20140;-76
2022/12/27 01:27:37;;;;;;;5.77;2.10;;;;;;;;;;6208669;23;20196;-76
2022/12/27 01:30:06;;;;;;;5.97;1.67;;;;;;;;;;6209275;23;20355;-76
2022/12/27 01:32:34;;;;;;;10.27;2.13;;;;;;;;;;6205269;23;20159;-76
2022/12/27 01:34:59;;;;;;;6.90;1.77;;;;;;;;;;6206907;23;20391;-76
2022/12/27 01:37:29;;;;;;;7.00;1.80;;;;;;;;;;6205783;23;20424;-76
2022/12/27 01:39:54;;;;;;;6.93;1.97;;;;;;;;;;6205636;23;20215;-76
2022/12/27 01:45:12;;;;;;;4.23;1.67;;;;;;;;;;6206630;23;20247;-76
2022/12/27 01:47:40;;;;;;;13.40;1.97;;;;;;;;;;6208248;23;20383;-76
2022/12/27 01:50:13;;;;;;;8.47;2.43;;;;;;;;;;6206666;23;20371;-76
2022/12/27 01:52:43;;;;;;;8.40;2.10;;;;;;;;;;6206334;23;21074;-76
2022/12/27 01:55:23;;;;;;;9.40;1.80;;;;;;;;;;6209532;23;20836;-76
2022/12/27 01:57:49;;;;;;;11.63;2.43;;;;;;;;;;6205700;23;20417;-76
2022/12/27 02:00:14;;;;;;;8.37;1.87;;;;;;;;;;6209295;23;20414;-76
2022/12/27 02:02:40;;;;;;;7.33;2.03;;;;;;;;;;6209875;23;20364;-76
2022/12/27 02:05:06;;;;;;;10.97;2.10;;;;;;;;;;6208533;23;20486;-76
2022/12/27 02:07:46;;;;;;;9.10;1.90;;;;;;;;;;6207704;23;20263;-76
2022/12/27 02:10:15;;;;;;;6.40;1.90;;;;;;;;;;6203429;23;20779;-76
2022/12/27 02:12:40;;;;;;;7.43;1.77;;;;;;;;;;6209789;23;20430;-77
2022/12/27 02:15:06;;;;;;;10.00;1.90;;;;;;;;;;6208287;23;20366;-76
2022/12/27 02:17:32;;;;;;;10.63;2.37;;;;;;;;;;6205133;23;20263;-76
2022/12/27 02:20:00;;;;;;;4.87;1.30;;;;;;;;;;6209156;23;20649;-76
2022/12/27 02:24:01;;;;;;;7.23;2.50;;;;;;;;;;6204179;23;20460;-77
2022/12/27 02:25:40;;;;;;;8.50;1.93;;;;;;;;;;6208684;23;20450;-76
2022/12/27 02:28:08;;;;;;;8.73;1.90;;;;;;;;;;6159059;23;20448;-76
2022/12/27 02:30:34;;;;;;;8.60;1.73;;;;;;;;;;6207148;23;20924;-76
2022/12/27 02:33:04;;;;;;;6.90;1.70;;;;;;;;;;6206845;23;20363;-76
2022/12/27 02:35:36;;;;;;;4.60;1.30;;;;;;;;;;6214021;23;20410;-76
2022/12/27 02:38:04;;;;;;;9.90;1.70;;;;;;;;;;6210303;23;20399;-76
2022/12/27 02:54:46;;;;;;;13.40;2.40;;;;;;;;;;6211148;23;20802;-76
2022/12/27 02:57:12;;;;;;;12.50;2.73;;;;;;;;;;6210597;23;20449;-76
2022/12/27 03:05:28;;;;;;;7.30;1.90;;;;;;;;;;6206934;23;20677;-76
2022/12/27 03:07:53;;;;;;;5.63;1.97;;;;;;;;;;6205529;23;20379;-76
2022/12/27 03:16:07;;;;;;;5.77;1.93;;;;;;;;;;6208252;23;20509;-76
2022/12/27 03:18:32;;;;;;;11.43;2.70;;;;;;;;;;6205698;23;20394;-75
2022/12/27 03:26:28;;;;;;;10.63;1.93;;;;;;;;;;6209101;23;20447;-76
2022/12/27 03:34:38;;;;;;;18.33;2.77;;;;;;;;;;6209342;23;20354;-75
2022/12/27 03:40:09;;;;;;;6.37;1.33;;;;;;;;;;6209587;23;20406;-76
2022/12/27 03:46:32;;;;;;;5.30;1.47;;;;;;;;;;6210116;23;20347;-76
2022/12/27 03:48:09;;;;;;;7.70;1.90;;;;;;;;;;6208596;23;20391;-76
2022/12/27 03:50:39;;;;;;;6.70;1.63;;;;;;;;;;6207715;23;20378;-76
2022/12/27 03:53:34;;;;;;;11.33;2.00;;;;;;;;;;6209366;23;20371;-76
2022/12/27 03:55:59;;;;;;;5.03;1.30;;;;;;;;;;6207000;23;20450;-76
2022/12/27 03:58:24;;;;;;;7.50;1.83;;;;;;;;;;6206901;23;20686;-76
2022/12/27 04:00:52;;;;;;;5.67;1.63;;;;;;;;;;6208376;23;20483;-75
2022/12/27 04:03:20;;;;;;;12.43;1.87;;;;;;;;;;6208897;23;20255;-75
2022/12/27 04:05:47;;;;;;;11.10;2.63;;;;;;;;;;6210433;23;20389;-76
2022/12/27 04:35:34;;;;;;;7.57;2.80;;;;;;;;;;6213295;23;20350;-76
2022/12/27 04:38:02;;;;;;;10.47;2.27;;;;;;;;;;6209388;23;20478;-75
2022/12/27 04:57:03;;;;;;;11.43;2.57;;;;;;;;;;6209141;23;20492;-75
2022/12/27 05:02:15;;;;;;;11.60;1.83;;;;;;;;;;6206871;23;20154;-75
2022/12/27 05:04:41;;;;;;;8.83;2.10;;;;;;;;;;6210025;23;20370;-75
2022/12/27 05:15:20;;;;;;;7.70;1.80;;;;;;;;;;6212826;23;20382;-75
2022/12/27 05:17:45;;;;;;;13.40;2.60;;;;;;;;;;6209068;23;20435;-75
2022/12/27 05:20:10;;;;;;;13.60;2.20;;;;;;;;;;6209398;23;20154;-76
2022/12/27 05:25:37;;;;;;;9.67;2.00;;;;;;;;;;6209528;23;20139;-75
2022/12/27 05:28:06;;;;;;;19.60;2.27;;;;;;;;;;6208782;23;20453;-75
2022/12/27 05:30:32;;;;;;;9.30;1.93;;;;;;;;;;6210642;23;20398;-75
2022/12/27 05:32:59;;;;;;;7.40;2.10;;;;;;;;;;6211133;23;20439;-75
2022/12/27 05:35:25;;;;;;;7.07;1.60;;;;;;;;;;6210775;23;20413;-75
2022/12/27 05:37:54;;;;;;;8.93;2.23;;;;;;;;;;6209338;23;20858;-75
2022/12/27 05:40:19;;;;;;;8.70;1.43;;;;;;;;;;6208140;23;20163;-76
2022/12/27 05:42:47;;;;;;;9.83;2.70;;;;;;;;;;6210796;23;20693;-75
2022/12/27 05:45:13;;;;;;;9.93;2.03;;;;;;;;;;6208322;23;20591;-76
2022/12/27 05:47:41;;;;;;;8.33;1.67;;;;;;;;;;6204246;23;20431;-75
2022/12/27 05:50:06;;;;;;;6.30;1.73;;;;;;;;;;6209002;23;20379;-75
2022/12/27 05:52:35;;;;;;;6.47;1.63;;;;;;;;;;6207468;23;20390;-75
2022/12/27 05:55:03;;;;;;;7.60;1.80;;;;;;;;;;6210460;23;20158;-76
2022/12/27 05:57:28;;;;;;;10.53;1.63;;;;;;;;;;6208427;23;20421;-76
2022/12/27 05:59:56;;;;;;;7.47;1.80;;;;;;;;;;6209141;23;20454;-75
2022/12/27 06:02:21;;;;;;;12.53;2.27;;;;;;;;;;6208749;23;20152;-76
2022/12/27 06:04:47;;;;;;;13.30;2.40;;;;;;;;;;6207365;23;20705;-75
2022/12/27 06:07:13;;;;;;;8.37;1.90;;;;;;;;;;6210428;23;20171;-75
2022/12/27 06:09:40;;;;;;;8.10;2.37;;;;;;;;;;6204078;23;20156;-75
2022/12/27 06:12:06;;;;;;;4.50;1.40;;;;;;;;;;6202196;23;20781;-75
2022/12/27 06:14:31;;;;;;;8.13;2.10;;;;;;;;;;6208814;23;20367;-75
2022/12/27 06:16:59;;;;;;;8.20;1.80;;;;;;;;;;6208961;23;20576;-75
2022/12/27 06:19:24;;;;;;;7.03;2.40;;;;;;;;;;6207641;23;20191;-75
2022/12/27 06:21:52;;;;;;;7.00;1.70;;;;;;;;;;6205068;23;20370;-75
2022/12/27 06:24:17;;;;;;;6.80;1.97;;;;;;;;;;6214560;23;20598;-75
2022/12/27 06:26:43;;;;;;;10.23;2.30;;;;;;;;;;6209932;23;20367;-74
2022/12/27 06:29:10;;;;;;;8.30;1.70;;;;;;;;;;6206711;23;20187;-74
2022/12/27 06:31:35;;;;;;;11.93;1.80;;;;;;;;;;6208294;23;20199;-75
2022/12/27 06:34:03;;;;;;;5.00;1.50;;;;;;;;;;6209315;23;20441;-74
2022/12/27 06:36:29;;;;;;;9.13;2.27;;;;;;;;;;6204679;23;20176;-74
2022/12/27 06:38:55;;;;;;;4.53;1.70;;;;;;;;;;6202485;23;20470;-74
2022/12/27 06:41:21;;;;;;;10.17;2.20;;;;;;;;;;6203761;23;20175;-74
2022/12/27 06:43:47;;;;;;;5.40;1.67;;;;;;;;;;6207733;23;20762;-74
2022/12/27 06:46:16;;;;;;;15.03;2.67;;;;;;;;;;6207777;23;20144;-74
2022/12/27 06:48:42;;;;;;;7.80;2.70;;;;;;;;;;6203801;23;20173;-74
2022/12/27 06:51:08;;;;;;;10.47;2.47;;;;;;;;;;6207456;23;20374;-74
2022/12/27 06:53:35;;;;;;;15.63;3.23;;;;;;;;;;6208802;23;20633;-74
2022/12/27 06:56:08;;;;;;;10.03;2.03;;;;;;;;;;6207106;23;20426;-74
2022/12/27 06:58:33;;;;;;;11.03;2.40;;;;;;;;;;6204838;23;20410;-74
2022/12/27 07:01:06;;;;;;;8.70;2.53;;;;;;;;;;6205241;23;20364;-74
2022/12/27 07:03:31;;;;;;;10.83;2.60;;;;;;;;;;6206596;23;20156;-74
2022/12/27 07:06:00;;;;;;;9.57;2.50;;;;;;;;;;6206801;23;20363;-74
2022/12/27 07:08:25;;;;;;;10.67;2.93;;;;;;;;;;6205706;23;20168;-74
2022/12/27 07:10:50;;;;;;;10.97;3.00;;;;;;;;;;6208415;23;20437;-74
2022/12/27 07:13:15;;;;;;;9.93;2.13;;;;;;;;;;6206208;23;20167;-75
2022/12/27 07:15:40;;;;;;;10.83;2.53;;;;;;;;;;6205900;23;20439;-74
2022/12/27 07:18:06;;;;;;;10.63;2.60;;;;;;;;;;6205140;23;20167;-74
2022/12/27 07:20:31;;;;;;;6.63;2.03;;;;;;;;;;6207077;23;20144;-74
2022/12/27 07:22:57;;;;;;;11.97;2.10;;;;;;;;;;6206057;23;20167;-74
2022/12/27 07:25:23;;;;;;;14.37;2.30;;;;;;;;;;6206166;23;20521;-74
2022/12/27 07:27:48;;;;;;;9.13;2.07;;;;;;;;;;6202874;23;20403;-75
2022/12/27 07:30:13;;;;;;;6.83;1.97;;;;;;;;;;6210405;23;20178;-75
2022/12/27 07:32:38;;;;;;;8.17;2.60;;;;;;;;;;6209821;23;20528;-75
2022/12/27 07:35:04;;;;;;;14.83;3.30;;;;;;;;;;6209653;23;20198;-75
2022/12/27 07:37:29;;;;;;;9.00;2.20;;;;;;;;;;6205087;23;20187;-75
2022/12/27 07:39:54;;;;;;;13.37;2.73;;;;;;;;;;6203535;23;20167;-74
2022/12/27 07:42:20;;;;;;;14.70;2.23;;;;;;;;;;6204703;23;20175;-75
2022/12/27 07:44:45;;;;;;;12.90;2.53;;;;;;;;;;6207918;23;20230;-74
2022/12/27 07:47:10;;;;;;;8.17;1.97;;;;;;;;;;6206978;23;20523;-74
2022/12/27 07:49:36;;;;;;;7.27;1.73;;;;;;;;;;6207611;23;20151;-76
2022/12/27 07:52:01;;;;;;;5.63;2.23;;;;;;;;;;6205827;23;20163;-74
2022/12/27 07:54:26;;;;;;;12.60;3.50;;;;;;;;;;6207810;23;20154;-74
2022/12/27 07:56:51;;;;;;;8.13;2.20;;;;;;;;;;6204414;23;20186;-74
2022/12/27 07:59:17;;;;;;;9.60;2.47;;;;;;;;;;6206454;23;20171;-74
2022/12/27 08:04:26;;;;;;;6.67;1.97;;;;;;;;;;6207287;23;20190;-74
2022/12/27 08:06:51;;;;;;;9.90;2.33;;;;;;;;;;6204120;23;20370;-75
2022/12/27 08:09:23;;;;;;;8.93;2.53;;;;;;;;;;6204367;23;20261;-75
2022/12/27 08:11:48;;;;;;;6.13;2.43;;;;;;;;;;6204172;23;20401;-75
2022/12/27 08:14:13;;;;;;;9.57;1.93;;;;;;;;;;6207077;23;20501;-74
2022/12/27 08:16:38;;;;;;;10.90;2.20;;;;;;;;;;6210787;23;20524;-75
2022/12/27 08:19:04;;;;;;;9.40;1.70;;;;;;;;;;6206354;23;20164;-75
2022/12/27 08:21:29;;;;;;;9.30;2.27;;;;;;;;;;6211817;23;20190;-75
2022/12/27 08:23:54;;;;;;;5.10;1.90;;;;;;;;;;6211727;23;20219;-75
2022/12/27 08:26:20;;;;;;;9.50;2.00;;;;;;;;;;6211820;23;20696;-75
2022/12/27 08:28:45;;;;;;;6.17;1.67;;;;;;;;;;6207950;23;20186;-76
2022/12/27 08:31:11;;;;;;;12.33;2.90;;;;;;;;;;6208602;23;20895;-75
2022/12/27 08:33:37;;;;;;;6.33;2.30;;;;;;;;;;6206615;23;20372;-75
2022/12/27 08:36:04;;;;;;;12.53;2.40;;;;;;;;;;6209589;23;20414;-75
2022/12/27 08:38:29;;;;;;;12.30;2.27;;;;;;;;;;6207933;23;20881;-75
2022/12/27 08:40:55;;;;;;;7.53;2.10;;;;;;;;;;6210736;23;20435;-76
2022/12/27 08:43:20;;;;;;;7.67;2.53;;;;;;;;;;6208995;23;20145;-75
2022/12/27 08:45:48;;;;;;;6.97;1.87;;;;;;;;;;6210275;23;20171;-75
2022/12/27 08:48:13;;;;;;;13.30;2.20;;;;;;;;;;6210688;23;20771;-75
2022/12/27 08:50:39;;;;;;;4.67;2.00;;;;;;;;;;6211984;23;20367;-75
2022/12/27 08:53:04;;;;;;;8.00;2.20;;;;;;;;;;6211633;23;20144;-76
2022/12/27 08:55:32;;;;;;;9.60;1.87;;;;;;;;;;6211863;23;20208;-75
2022/12/27 08:58:01;;;;;;;10.30;2.40;;;;;;;;;;6210384;23;20587;-76
2022/12/27 09:00:27;;;;;;;9.97;2.10;;;;;;;;;;6212186;23;20366;-75
2022/12/27 09:02:53;;;;;;;5.10;2.17;;;;;;;;;;6212482;23;20359;-75
2022/12/27 09:05:18;;;;;;;6.40;2.17;;;;;;;;;;6208266;23;20861;-75
2022/12/27 09:07:44;;;;;;;9.23;2.60;;;;;;;;;;6210190;23;20180;-75
2022/12/27 09:10:10;;;;;;;6.37;1.83;;;;;;;;;;6211929;23;20152;-75
2022/12/27 09:12:35;;;;;;;8.23;2.00;;;;;;;;;;6210071;23;20622;-75
2022/12/27 09:15:03;;;;;;;8.83;2.07;;;;;;;;;;6207861;23;20188;-75
2022/12/27 09:17:31;;;;;;;9.30;2.23;;;;;;;;;;6206690;23;20179;-75
2022/12/27 09:19:58;;;;;;;6.73;2.30;;;;;;;;;;6206911;23;20416;-76
2022/12/27 09:22:23;;;;;;;12.00;2.70;;;;;;;;;;6208002;23;20382;-76
2022/12/27 09:24:49;;;;;;;7.33;2.47;;;;;;;;;;6211173;23;20363;-76
2022/12/27 09:27:14;;;;;;;8.07;2.13;;;;;;;;;;6211322;23;20140;-75
2022/12/27 09:29:39;;;;;;;9.13;2.80;;;;;;;;;;6210903;23;20245;-75
2022/12/27 09:32:05;;;;;;;10.20;2.40;;;;;;;;;;6212195;23;20494;-75
2022/12/27 09:34:30;;;;;;;9.13;3.03;;;;;;;;;;6211297;23;20162;-76
2022/12/27 09:36:56;;;;;;;12.13;2.40;;;;;;;;;;6208884;23;20175;-75
2022/12/27 09:39:21;;;;;;;9.40;2.10;;;;;;;;;;6205938;23;20653;-75
2022/12/27 09:42:10;;;;;;;9.80;2.80;;;;;;;;;;6203039;23;20390;-75
2022/12/27 09:44:36;;;;;;;9.33;2.43;;;;;;;;;;6230300;23;20175;-75
2022/12/27 09:47:01;;;;;;;8.30;2.73;;;;;;;;;;6209909;23;20718;-75
2022/12/27 09:49:33;;;;;;;9.53;2.50;;;;;;;;;;6208952;23;20175;-78
2022/12/27 09:52:04;;;;;;;8.30;2.10;;;;;;;;;;6201505;23;20156;-78
2022/12/27 09:54:34;;;;;;;8.03;2.13;;;;;;;;;;6202052;23;20379;-76
2022/12/27 09:57:00;;;;;;;12.47;3.10;;;;;;;;;;6200671;23;20446;-79
2022/12/27 09:59:28;;;;;;;8.53;2.37;;;;;;;;;;6231706;23;20774;-76
2022/12/27 10:01:53;;;;;;;8.53;2.00;;;;;;;;;;6207453;23;20363;-77
2022/12/27 10:04:19;;;;;;;11.97;2.20;;;;;;;;;;6211140;23;20366;-77
2022/12/27 10:06:47;;;;;;;9.80;2.53;;;;;;;;;;6210577;23;20155;-77
2022/12/27 10:09:12;;;;;;;7.67;1.70;;;;;;;;;;6205312;23;20639;-76
2022/12/27 10:11:53;;;;;;;14.63;2.70;;;;;;;;;;6214016;23;20401;-78
2022/12/27 10:14:37;;;;;;;8.17;2.43;;;;;;;;;;6209550;23;20158;-75
2022/12/27 10:17:18;;;;;;;13.57;3.10;;;;;;;;;;6215202;23;20453;-76
2022/12/27 10:19:54;;;;;;;8.57;2.30;;;;;;;;;;6209186;23;20363;-76
2022/12/27 10:22:39;;;;;;;8.87;2.17;;;;;;;;;;6212718;23;20377;-76
2022/12/27 10:25:10;;;;;;;10.13;2.27;;;;;;;;;;6236408;23;20410;-77
2022/12/27 10:27:36;;;;;;;15.77;2.43;;;;;;;;;;6213588;23;20391;-76
2022/12/27 10:30:02;;;;;;;11.27;2.63;;;;;;;;;;6208620;23;20374;-75
2022/12/27 10:32:27;;;;;;;22.03;3.20;;;;;;;;;;6213610;23;20395;-74
2022/12/27 10:34:58;;;;;;;12.50;3.80;;;;;;;;;;6211918;23;20720;-75
2022/12/27 10:37:24;;;;;;;13.60;3.03;;;;;;;;;;6207302;23;20539;-77
2022/12/27 10:39:49;;;;;;;10.03;2.37;;;;;;;;;;6210806;23;20839;-77
2022/12/27 10:42:31;;;;;;;16.30;4.80;;;;;;;;;;6214067;23;20621;-77
2022/12/27 10:45:14;;;;;;;7.90;2.70;;;;;;;;;;6214255;23;20139;-78
2022/12/27 10:47:40;;;;;;;5.27;2.07;;;;;;;;;;6214206;23;20387;-77
2022/12/27 10:50:11;;;;;;;9.97;2.60;;;;;;;;;;6213058;23;20410;-76
2022/12/27 10:52:38;;;;;;;15.77;2.90;;;;;;;;;;6212963;23;20140;-77
2022/12/27 10:55:04;;;;;;;6.00;2.50;;;;;;;;;;6212189;23;20395;-76
2022/12/27 10:57:34;;;;;;;14.33;3.00;;;;;;;;;;6210030;23;20489;-76
2022/12/27 11:00:16;;;;;;;9.67;2.80;;;;;;;;;;6210132;23;20152;-76
2022/12/27 11:03:07;;;;;;;16.07;2.87;;;;;;;;;;6211083;23;20704;-76
2022/12/27 11:05:34;;;;;;;7.50;2.60;;;;;;;;;;6201654;23;20449;-76
2022/12/27 11:08:17;;;;;;;9.07;2.40;;;;;;;;;;6208523;23;20457;-76
2022/12/27 11:10:44;;;;;;;8.63;2.40;;;;;;;;;;6210835;23;20406;-76
2022/12/27 11:13:16;;;;;;;10.63;2.20;;;;;;;;;;6204764;23;20378;-76
2022/12/27 11:15:43;;;;;;;10.53;2.80;;;;;;;;;;6212211;23;20815;-76
2022/12/27 11:18:10;;;;;;;12.00;2.30;;;;;;;;;;6211425;23;20398;-75
2022/12/27 11:20:41;;;;;;;12.37;1.83;;;;;;;;;;6210783;23;20690;-76
2022/12/27 11:23:09;;;;;;;5.90;3.07;;;;;;;;;;6211402;23;20439;-76
2022/12/27 11:25:36;;;;;;;9.17;2.10;;;;;;;;;;6210704;23;20379;-76
2022/12/27 11:28:01;;;;;;;11.30;2.77;;;;;;;;;;6209325;23;20430;-76
2022/12/27 11:30:27;;;;;;;7.43;2.10;;;;;;;;;;6202917;23;20838;-76
2022/12/27 11:32:56;;;;;;;7.30;1.70;;;;;;;;;;6207291;23;20152;-76
2022/12/27 11:35:22;;;;;;;9.30;2.07;;;;;;;;;;6207138;23;20144;-76
2022/12/27 11:37:48;;;;;;;14.63;2.80;;;;;;;;;;6203474;23;20974;-76
2022/12/27 11:40:24;;;;;;;6.73;2.50;;;;;;;;;;6207953;23;20144;-77
2022/12/27 11:42:51;;;;;;;16.10;2.60;;;;;;;;;;6210943;23;20392;-76
2022/12/27 11:45:17;;;;;;;8.17;2.20;;;;;;;;;;6209559;23;20733;-79
2022/12/27 11:48:02;;;;;;;10.80;2.47;;;;;;;;;;6213426;23;20411;-81
2022/12/27 11:50:27;;;;;;;6.87;2.30;;;;;;;;;;6238702;23;20606;-77
2022/12/27 11:53:11;;;;;;;11.30;3.10;;;;;;;;;;6210089;23;20439;-77
2022/12/27 11:55:36;;;;;;;10.80;2.60;;;;;;;;;;6210300;23;20905;-77
2022/12/27 11:58:02;;;;;;;15.13;2.47;;;;;;;;;;6210220;23;20472;-77
2022/12/27 12:00:32;;;;;;;9.97;2.87;;;;;;;;;;6210916;23;20151;-77
2022/12/27 12:03:31;;;;;;;8.87;2.90;;;;;;;;;;6211516;23;20570;-77
2022/12/27 12:06:03;;;;;;;11.40;2.53;;;;;;;;;;6233627;23;20386;-77
2022/12/27 12:08:31;;;;;;;12.80;2.70;;;;;;;;;;6216455;23;20415;-77
2022/12/27 12:11:08;;;;;;;9.87;2.53;;;;;;;;;;6215433;23;20364;-77
2022/12/27 12:13:52;;;;;;;11.50;2.63;;;;;;;;;;6215004;23;20370;-77
2022/12/27 12:16:26;;;;;;;8.53;3.23;;;;;;;;;;6239272;23;20848;-77
2022/12/27 12:18:59;;;;;;;14.60;3.00;;;;;;;;;;6214368;23;20398;-76
2022/12/27 12:21:29;;;;;;;15.07;2.70;;;;;;;;;;6212900;23;20936;-76
2022/12/27 12:24:00;;;;;;;8.43;2.47;;;;;;;;;;6214289;23;20367;-77
2022/12/27 12:26:27;;;;;;;7.07;2.57;;;;;;;;;;6218016;23;20359;-77
2022/12/27 12:29:04;;;;;;;4.63;1.87;;;;;;;;;;6216005;23;20411;-77
2022/12/27 12:31:29;;;;;;;10.63;2.10;;;;;;;;;;6215753;23;20370;-77
2022/12/27 12:33:58;;;;;;;5.60;2.20;;;;;;;;;;6214432;23;20819;-77
2022/12/27 12:36:29;;;;;;;6.10;2.40;;;;;;;;;;6208658;23;20172;-77
2022/12/27 12:39:05;;;;;;;10.23;2.43;;;;;;;;;;6213625;23;20816;-77
2022/12/27 12:41:40;;;;;;;11.83;2.93;;;;;;;;;;6211896;23;20420;-76
2022/12/27 12:44:24;;;;;;;11.40;2.70;;;;;;;;;;6215362;23;20358;-77
2022/12/27 12:47:08;;;;;;;10.27;2.80;;;;;;;;;;6239068;23;20386;-77
2022/12/27 12:49:41;;;;;;;9.77;2.10;;;;;;;;;;6215066;23;20427;-79
2022/12/27 12:52:22;;;;;;;6.73;2.27;;;;;;;;;;6212597;23;20351;-77
2022/12/27 12:55:09;;;;;;;8.93;2.90;;;;;;;;;;6213086;23;20351;-76
2022/12/27 12:57:53;;;;;;;8.40;2.57;;;;;;;;;;6236736;23;20422;-79
2022/12/27 13:00:27;;;;;;;9.33;2.20;;;;;;;;;;6210305;23;20411;-77
2022/12/27 13:03:01;;;;;;;7.30;2.53;;;;;;;;;;6213683;23;20351;-78
2022/12/27 13:05:45;;;;;;;5.73;2.20;;;;;;;;;;6213332;23;20382;-79
2022/12/27 13:08:32;;;;;;;8.20;2.83;;;;;;;;;;6211060;23;20403;-77
2022/12/27 13:11:06;;;;;;;7.77;2.50;;;;;;;;;;6213137;23;20378;-77
2022/12/27 13:13:44;;;;;;;9.20;2.70;;;;;;;;;;6209845;23;20363;-80
2022/12/27 13:16:28;;;;;;;10.83;2.63;;;;;;;;;;6238113;23;20425;-78
2022/12/27 13:18:53;;;;;;;15.70;2.40;;;;;;;;;;6237045;23;20396;-78
2022/12/27 13:21:18;;;;;;;9.10;2.73;;;;;;;;;;6213356;23;20417;-77
2022/12/27 13:24:03;;;;;;;9.80;2.33;;;;;;;;;;6213687;23;20140;-77
2022/12/27 13:26:46;;;;;;;7.83;2.20;;;;;;;;;;6212750;23;20152;-77
2022/12/27 13:29:14;;;;;;;12.43;2.23;;;;;;;;;;6212028;23;20406;-77
2022/12/27 13:31:42;;;;;;;10.87;2.20;;;;;;;;;;6213228;23;20912;-77
2022/12/27 13:34:40;;;;;;;8.30;1.70;;;;;;;;;;6213158;23;20382;-77
2022/12/27 13:37:14;;;;;;;7.77;2.20;;;;;;;;;;6171055;23;20873;-78
2022/12/27 13:39:46;;;;;;;6.37;2.23;;;;;;;;;;6213920;23;20381;-77
2022/12/27 13:42:30;;;;;;;7.10;2.43;;;;;;;;;;6207635;23;20389;-78
2022/12/27 13:45:13;;;;;;;15.03;3.43;;;;;;;;;;6211314;23;20374;-77
2022/12/27 13:47:40;;;;;;;8.80;2.10;;;;;;;;;;6207491;23;20387;-77
2022/12/27 13:50:29;;;;;;;7.93;3.00;;;;;;;;;;6212635;23;20371;-78
2022/12/27 13:52:54;;;;;;;14.87;2.90;;;;;;;;;;6211538;23;20389;-78
2022/12/27 13:55:25;;;;;;;15.83;3.37;;;;;;;;;;6212098;23;20359;-77
2022/12/27 13:58:29;;;;;;;9.33;2.30;;;;;;;;;;6209237;23;20533;-77
2022/12/27 14:00:54;;;;;;;7.30;2.40;;;;;;;;;;6114727;23;20385;-77
2022/12/27 14:03:38;;;;;;;9.50;2.33;;;;;;;;;;6096517;23;20869;-78
2022/12/27 14:06:15;;;;;;;9.97;4.47;;;;;;;;;;6176702;23;20155;-77
2022/12/27 14:08:43;;;;;;;10.27;2.87;;;;;;;;;;6212696;23;20418;-77
2022/12/27 14:11:20;;;;;;;13.70;3.20;;;;;;;;;;6213263;23;20700;-77
2022/12/27 14:13:46;;;;;;;7.43;2.50;;;;;;;;;;6211376;23;20390;-77
2022/12/27 14:16:11;;;;;;;12.20;3.60;;;;;;;;;;6212626;23;20418;-77
2022/12/27 14:18:37;;;;;;;9.07;2.53;;;;;;;;;;6207842;23;20168;-79
2022/12/27 14:21:21;;;;;;;6.80;3.03;;;;;;;;;;6211150;23;20162;-79
2022/12/27 14:23:57;;;;;;;13.30;2.60;;;;;;;;;;6237978;23;20159;-79
2022/12/27 14:26:25;;;;;;;6.90;2.30;;;;;;;;;;6215883;23;20359;-81
2022/12/27 14:29:00;;;;;;;7.20;2.80;;;;;;;;;;6207971;23;20853;-81
2022/12/27 14:31:28;;;;;;;9.63;2.30;;;;;;;;;;6224403;23;20397;-79
2022/12/27 14:34:08;;;;;;;4.63;1.90;;;;;;;;;;6218807;23;20378;-80
2022/12/27 14:36:52;;;;;;;10.27;2.83;;;;;;;;;;6224683;23;20406;-85
2022/12/27 14:39:29;;;;;;;14.17;3.20;;;;;;;;;;6230354;23;20394;-84
2022/12/27 14:42:03;;;;;;;16.90;2.80;;;;;;;;;;6225205;23;20391;-80
2022/12/27 14:44:38;;;;;;;7.70;2.20;;;;;;;;;;6219652;23;20360;-80
2022/12/27 14:47:09;;;;;;;9.00;3.43;;;;;;;;;;6226776;23;20441;-84
2022/12/27 14:50:01;;;;;;;10.50;2.50;;;;;;;;;;6228801;23;20367;-84
2022/12/27 14:52:49;;;;;;;11.40;3.20;;;;;;;;;;6232022;23;20354;-84
2022/12/27 14:55:23;;;;;;;12.87;2.83;;;;;;;;;;6186658;23;20375;-83
2022/12/27 14:58:07;;;;;;;14.50;3.40;;;;;;;;;;6233398;23;20422;-82
2022/12/27 15:00:51;;;;;;;11.97;3.90;;;;;;;;;;6234415;23;20391;-80
2022/12/27 15:03:17;;;;;;;8.20;3.33;;;;;;;;;;6247793;23;20411;-80
2022/12/27 15:05:42;;;;;;;8.33;2.80;;;;;;;;;;6214368;23;21015;-78
2022/12/27 15:08:16;;;;;;;11.87;3.07;;;;;;;;;;6216413;23;20191;-83
2022/12/27 15:10:42;;;;;;;10.20;3.10;;;;;;;;;;6221993;23;20634;-81
2022/12/27 15:13:10;;;;;;;10.60;3.23;;;;;;;;;;6208400;23;20406;-79
2022/12/27 15:15:48;;;;;;;5.63;2.80;;;;;;;;;;6214406;23;20148;-81
2022/12/27 15:18:36;;;;;;;8.13;3.80;;;;;;;;;;6209309;23;20398;-80
2022/12/27 15:21:37;;;;;;;8.93;3.20;;;;;;;;;;6213884;23;20732;-82
2022/12/27 15:24:12;;;;;;;13.33;4.00;;;;;;;;;;6136338;23;20854;-83
2022/12/27 15:26:49;;;;;;;9.93;3.60;;;;;;;;;;6203804;23;20401;-78
2022/12/27 15:29:14;;;;;;;11.33;3.57;;;;;;;;;;6210185;23;20413;-77
2022/12/27 15:31:39;;;;;;;12.90;4.00;;;;;;;;;;6201513;23;20382;-76
2022/12/27 15:34:20;;;;;;;12.60;3.70;;;;;;;;;;6206894;23;20148;-76
2022/12/27 15:36:47;;;;;;;12.70;3.93;;;;;;;;;;6203227;23;20174;-76
2022/12/27 15:39:31;;;;;;;11.23;4.30;;;;;;;;;;6207404;23;20399;-76
2022/12/27 15:42:05;;;;;;;12.17;4.50;;;;;;;;;;6203759;23;20695;-77
2022/12/27 15:44:43;;;;;;;11.43;3.90;;;;;;;;;;6207566;23;20362;-76
2022/12/27 15:47:31;;;;;;;12.40;4.80;;;;;;;;;;6209639;23;20815;-76
2022/12/27 15:49:56;;;;;;;9.77;4.70;;;;;;;;;;6196878;23;20382;-76
2022/12/27 15:52:24;;;;;;;11.90;5.70;;;;;;;;;;6210121;23;20378;-77
2022/12/27 15:54:52;;;;;;;10.37;4.80;;;;;;;;;;6206135;23;20151;-76
2022/12/27 15:57:36;;;;;;;12.70;6.07;;;;;;;;;;6211302;23;20814;-76
2022/12/27 16:00:12;;;;;;;16.80;6.03;;;;;;;;;;6234990;23;20465;-76
2022/12/27 16:02:47;;;;;;;17.13;6.83;;;;;;;;;;6210336;23;20371;-76
2022/12/27 16:05:32;;;;;;;13.03;6.80;;;;;;;;;;6211986;23;20442;-77
2022/12/27 16:07:57;;;;;;;18.13;6.97;;;;;;;;;;6211035;23;20537;-77
2022/12/27 16:10:25;;;;;;;15.23;7.50;;;;;;;;;;6212412;23;20402;-76
2022/12/27 16:12:53;;;;;;;15.17;7.80;;;;;;;;;;6211739;23;20148;-77
2022/12/27 16:15:36;;;;;;;16.40;8.20;;;;;;;;;;6211737;23;20363;-76
2022/12/27 16:18:02;;;;;;;20.90;7.93;;;;;;;;;;6210595;23;20963;-76
2022/12/27 16:20:28;;;;;;;12.43;7.30;;;;;;;;;;6211274;23;20482;-77
2022/12/27 16:22:58;;;;;;;16.60;7.97;;;;;;;;;;6210643;23;20410;-77
2022/12/27 16:25:26;;;;;;;17.97;9.33;;;;;;;;;;6212320;23;20150;-77
2022/12/27 16:28:14;;;;;;;19.30;9.47;;;;;;;;;;6211534;23;20860;-77
2022/12/27 16:30:40;;;;;;;14.32;8.93;;;;;;;;;;6202837;23;20382;-76
2022/12/27 16:33:06;;;;;;;14.57;9.30;;;;;;;;;;6209714;23;20483;-76
2022/12/27 16:35:31;;;;;;;12.03;9.30;;;;;;;;;;6213030;23;20171;-77
2022/12/27 16:38:02;;;;;;;13.10;9.70;;;;;;;;;;6211566;23;20439;-76
2022/12/27 16:40:34;;;;;;;14.80;9.73;;;;;;;;;;6209295;23;20190;-76
2022/12/27 16:43:08;;;;;;;18.00;10.07;;;;;;;;;;6220460;23;20367;-81